sensor_id;sensor_type;location;lat;lon;timestamp;temperature;humidity
19692;DHT22;42748;50.016;19.890;2023-02-19T00:01:35;7.50;99.90
19692;DHT22;42748;50.016;19.890;2023-02-19T00:04:08;7.50;99.90
19692;DHT22;42748;50.016;19.890;2023-02-19T00:06:36;7.40;99.90
19692;DHT22;42748;50.016;19.890;2023-02-19T00:09:03;7.40;99.90
19692;DHT22;42748;50.016;19.890;2023-02-19T00:11:33;7.40;99.90
19692;DHT22;42748;50.016;19.890;2023-02-19T00:14:02;7.30;99.90
19692;DHT22;42748;50.016;19.890;2023-02-19T00:16:37;7.40;99.90
19692;DHT22;42748;50.016;19.890;2023-02-19T00:19:07;7.40;99.90
19692;DHT22;42748;50.016;19.890;2023-02-19T00:21:34;7.30;99.90
19692;DHT22;42748;50.016;19.890;2023-02-19T00:24:04;7.30;99.90
19692;DHT22;42748;50.016;19.890;2023-02-19T00:26:31;7.30;99.90
19692;DHT22;42748;50.016;19.890;2023-02-19T00:29:00;7.30;99.90
19692;DHT22;42748;50.016;19.890;2023-02-19T00:31:32;7.30;99.90
19692;DHT22;42748;50.016;19.890;2023-02-19T00:34:03;7.30;99.90
19692;DHT22;42748;50.016;19.890;2023-02-19T00:36:32;7.30;99.90
19692;DHT22;42748;50.016;19.890;2023-02-19T00:39:03;7.30;99.90
19692;DHT22;42748;50.016;19.890;2023-02-19T00:41:31;7.20;99.90
19692;DHT22;42748;50.016;19.890;2023-02-19T00:44:02;7.20;99.90
19692;DHT22;42748;50.016;19.890;2023-02-19T00:49:01;7.20;99.90
19692;DHT22;42748;50.016;19.890;2023-02-19T00:51:31;7.20;99.90
19692;DHT22;42748;50.016;19.890;2023-02-19T00:53:59;7.10;99.90
19692;DHT22;42748;50.016;19.890;2023-02-19T00:56:26;7.10;99.90
19692;DHT22;42748;50.016;19.890;2023-02-19T00:58:54;7.10;99.90
19692;DHT22;42748;50.016;19.890;2023-02-19T01:01:21;7.10;99.90
19692;DHT22;42748;50.016;19.890;2023-02-19T01:03:50;7.00;99.90
19692;DHT22;42748;50.016;19.890;2023-02-19T01:06:19;7.00;99.90
19692;DHT22;42748;50.016;19.890;2023-02-19T01:08:46;7.00;99.90
19692;DHT22;42748;50.016;19.890;2023-02-19T01:11:14;7.00;99.90
19692;DHT22;42748;50.016;19.890;2023-02-19T01:13:42;6.90;99.90
19692;DHT22;42748;50.016;19.890;2023-02-19T01:16:18;6.90;99.90
19692;DHT22;42748;50.016;19.890;2023-02-19T01:18:46;6.90;99.90
19692;DHT22;42748;50.016;19.890;2023-02-19T01:21:16;6.90;99.90
19692;DHT22;42748;50.016;19.890;2023-02-19T01:23:45;6.90;99.90
19692;DHT22;42748;50.016;19.890;2023-02-19T01:26:16;6.80;99.90
19692;DHT22;42748;50.016;19.890;2023-02-19T01:28:44;6.90;99.90
19692;DHT22;42748;50.016;19.890;2023-02-19T01:31:15;6.90;99.90
19692;DHT22;42748;50.016;19.890;2023-02-19T01:33:47;6.90;99.90
19692;DHT22;42748;50.016;19.890;2023-02-19T01:36:15;6.90;99.90
19692;DHT22;42748;50.016;19.890;2023-02-19T01:38:42;6.90;99.90
19692;DHT22;42748;50.016;19.890;2023-02-19T01:41:13;6.90;99.90
19692;DHT22;42748;50.016;19.890;2023-02-19T01:44:01;6.90;99.90
19692;DHT22;42748;50.016;19.890;2023-02-19T01:46:31;6.80;99.90
19692;DHT22;42748;50.016;19.890;2023-02-19T01:51:38;6.80;99.90
19692;DHT22;42748;50.016;19.890;2023-02-19T01:54:08;6.80;99.90
19692;DHT22;42748;50.016;19.890;2023-02-19T01:56:39;6.80;99.90
19692;DHT22;42748;50.016;19.890;2023-02-19T01:59:07;6.80;99.90
19692;DHT22;42748;50.016;19.890;2023-02-19T02:01:36;6.80;99.90
19692;DHT22;42748;50.016;19.890;2023-02-19T02:04:05;6.80;99.90
19692;DHT22;42748;50.016;19.890;2023-02-19T02:06:38;6.70;99.90
19692;DHT22;42748;50.016;19.890;2023-02-19T02:09:08;6.80;99.90
19692;DHT22;42748;50.016;19.890;2023-02-19T02:11:54;6.80;99.90
19692;DHT22;42748;50.016;19.890;2023-02-19T02:14:24;6.80;99.90
19692;DHT22;42748;50.016;19.890;2023-02-19T02:17:26;6.80;99.90
19692;DHT22;42748;50.016;19.890;2023-02-19T02:26:08;6.80;99.90
19692;DHT22;42748;50.016;19.890;2023-02-19T02:34:11;6.90;99.90
19692;DHT22;42748;50.016;19.890;2023-02-19T02:36:43;6.80;99.90
19692;DHT22;42748;50.016;19.890;2023-02-19T02:39:16;6.80;99.90
19692;DHT22;42748;50.016;19.890;2023-02-19T02:41:54;6.80;99.90
19692;DHT22;42748;50.016;19.890;2023-02-19T02:44:45;6.80;99.90
19692;DHT22;42748;50.016;19.890;2023-02-19T02:47:36;6.80;99.90
19692;DHT22;42748;50.016;19.890;2023-02-19T02:50:19;6.80;99.90
19692;DHT22;42748;50.016;19.890;2023-02-19T02:52:49;6.80;99.90
19692;DHT22;42748;50.016;19.890;2023-02-19T02:55:40;6.70;99.90
19692;DHT22;42748;50.016;19.890;2023-02-19T02:58:10;6.80;99.90
19692;DHT22;42748;50.016;19.890;2023-02-19T03:00:41;6.80;99.90
19692;DHT22;42748;50.016;19.890;2023-02-19T03:03:30;6.80;99.90
19692;DHT22;42748;50.016;19.890;2023-02-19T03:06:02;6.80;99.90
19692;DHT22;42748;50.016;19.890;2023-02-19T03:11:05;6.80;99.90
19692;DHT22;42748;50.016;19.890;2023-02-19T03:14:03;6.80;99.90
19692;DHT22;42748;50.016;19.890;2023-02-19T03:16:55;6.80;99.90
19692;DHT22;42748;50.016;19.890;2023-02-19T03:19:46;6.80;99.90
19692;DHT22;42748;50.016;19.890;2023-02-19T03:22:29;6.80;99.90
19692;DHT22;42748;50.016;19.890;2023-02-19T03:25:20;6.80;99.90
19692;DHT22;42748;50.016;19.890;2023-02-19T03:28:11;6.80;99.90
19692;DHT22;42748;50.016;19.890;2023-02-19T03:30:48;6.80;99.90
19692;DHT22;42748;50.016;19.890;2023-02-19T03:33:20;6.80;99.90
19692;DHT22;42748;50.016;19.890;2023-02-19T03:35:53;6.80;99.90
19692;DHT22;42748;50.016;19.890;2023-02-19T03:38:29;6.80;99.90
19692;DHT22;42748;50.016;19.890;2023-02-19T03:44:16;6.80;99.90
19692;DHT22;42748;50.016;19.890;2023-02-19T03:52:30;6.70;99.90
19692;DHT22;42748;50.016;19.890;2023-02-19T03:55:16;6.80;99.90
19692;DHT22;42748;50.016;19.890;2023-02-19T04:02:56;6.80;99.90
19692;DHT22;42748;50.016;19.890;2023-02-19T04:05:26;6.70;99.90
19692;DHT22;42748;50.016;19.890;2023-02-19T04:08:07;6.80;99.90
19692;DHT22;42748;50.016;19.890;2023-02-19T04:10:43;6.70;99.90
19692;DHT22;42748;50.016;19.890;2023-02-19T04:13:28;6.70;99.90
19692;DHT22;42748;50.016;19.890;2023-02-19T04:16:01;6.70;99.90
19692;DHT22;42748;50.016;19.890;2023-02-19T04:18:34;6.70;99.90
19692;DHT22;42748;50.016;19.890;2023-02-19T04:21:05;6.80;99.90
19692;DHT22;42748;50.016;19.890;2023-02-19T04:23:39;6.70;99.90
19692;DHT22;42748;50.016;19.890;2023-02-19T04:26:07;6.70;99.90
19692;DHT22;42748;50.016;19.890;2023-02-19T04:28:35;6.70;99.90
19692;DHT22;42748;50.016;19.890;2023-02-19T04:31:03;6.70;99.90
19692;DHT22;42748;50.016;19.890;2023-02-19T04:33:30;6.70;99.90
19692;DHT22;42748;50.016;19.890;2023-02-19T04:35:57;6.70;99.90
19692;DHT22;42748;50.016;19.890;2023-02-19T04:38:24;6.70;99.90
19692;DHT22;42748;50.016;19.890;2023-02-19T04:40:51;6.70;99.90
19692;DHT22;42748;50.016;19.890;2023-02-19T04:43:18;6.70;99.90
19692;DHT22;42748;50.016;19.890;2023-02-19T04:45:45;6.70;99.90
19692;DHT22;42748;50.016;19.890;2023-02-19T04:48:13;6.70;99.90
19692;DHT22;42748;50.016;19.890;2023-02-19T04:50:40;6.70;99.90
19692;DHT22;42748;50.016;19.890;2023-02-19T04:53:07;6.70;99.90
19692;DHT22;42748;50.016;19.890;2023-02-19T04:55:38;6.70;99.90
19692;DHT22;42748;50.016;19.890;2023-02-19T04:58:05;6.70;99.90
19692;DHT22;42748;50.016;19.890;2023-02-19T05:00:32;6.70;99.90
19692;DHT22;42748;50.016;19.890;2023-02-19T05:03:00;6.70;99.90
19692;DHT22;42748;50.016;19.890;2023-02-19T05:05:27;6.60;99.90
19692;DHT22;42748;50.016;19.890;2023-02-19T05:07:54;6.60;99.90
19692;DHT22;42748;50.016;19.890;2023-02-19T05:10:21;6.60;99.90
19692;DHT22;42748;50.016;19.890;2023-02-19T05:12:48;6.70;99.90
19692;DHT22;42748;50.016;19.890;2023-02-19T05:15:15;6.60;99.90
19692;DHT22;42748;50.016;19.890;2023-02-19T05:17:42;6.60;99.90
19692;DHT22;42748;50.016;19.890;2023-02-19T05:20:10;6.60;99.90
19692;DHT22;42748;50.016;19.890;2023-02-19T05:22:36;6.60;99.90
19692;DHT22;42748;50.016;19.890;2023-02-19T05:25:04;6.60;99.90
19692;DHT22;42748;50.016;19.890;2023-02-19T05:27:31;6.60;99.90
19692;DHT22;42748;50.016;19.890;2023-02-19T05:29:58;6.60;99.90
19692;DHT22;42748;50.016;19.890;2023-02-19T05:32:25;6.60;99.90
19692;DHT22;42748;50.016;19.890;2023-02-19T05:34:52;6.50;99.90
19692;DHT22;42748;50.016;19.890;2023-02-19T05:37:19;6.50;99.90
19692;DHT22;42748;50.016;19.890;2023-02-19T05:39:48;6.50;99.90
19692;DHT22;42748;50.016;19.890;2023-02-19T05:42:15;6.50;99.90
19692;DHT22;42748;50.016;19.890;2023-02-19T05:44:42;6.50;99.90
19692;DHT22;42748;50.016;19.890;2023-02-19T05:47:09;6.50;99.90
19692;DHT22;42748;50.016;19.890;2023-02-19T05:49:36;6.50;99.90
19692;DHT22;42748;50.016;19.890;2023-02-19T05:52:04;6.50;99.90
19692;DHT22;42748;50.016;19.890;2023-02-19T05:54:31;6.50;99.90
19692;DHT22;42748;50.016;19.890;2023-02-19T05:56:58;6.50;99.90
19692;DHT22;42748;50.016;19.890;2023-02-19T05:59:25;6.50;99.90
19692;DHT22;42748;50.016;19.890;2023-02-19T06:01:53;6.50;99.90
19692;DHT22;42748;50.016;19.890;2023-02-19T06:04:20;6.60;99.90
19692;DHT22;42748;50.016;19.890;2023-02-19T06:06:48;6.60;99.90
19692;DHT22;42748;50.016;19.890;2023-02-19T06:09:15;6.60;99.90
19692;DHT22;42748;50.016;19.890;2023-02-19T06:11:42;6.60;99.90
19692;DHT22;42748;50.016;19.890;2023-02-19T06:14:11;6.60;99.90
19692;DHT22;42748;50.016;19.890;2023-02-19T06:16:39;6.70;99.90
19692;DHT22;42748;50.016;19.890;2023-02-19T06:19:06;6.70;99.90
19692;DHT22;42748;50.016;19.890;2023-02-19T06:21:34;6.70;99.90
19692;DHT22;42748;50.016;19.890;2023-02-19T06:24:06;6.70;99.90
19692;DHT22;42748;50.016;19.890;2023-02-19T06:26:33;6.70;99.90
19692;DHT22;42748;50.016;19.890;2023-02-19T06:29:00;6.80;99.90
19692;DHT22;42748;50.016;19.890;2023-02-19T06:31:28;6.80;99.90
19692;DHT22;42748;50.016;19.890;2023-02-19T06:33:55;6.80;99.90
19692;DHT22;42748;50.016;19.890;2023-02-19T06:36:22;6.80;99.90
19692;DHT22;42748;50.016;19.890;2023-02-19T06:38:50;6.80;99.90
19692;DHT22;42748;50.016;19.890;2023-02-19T06:41:17;6.80;99.90
19692;DHT22;42748;50.016;19.890;2023-02-19T06:43:45;6.90;99.90
19692;DHT22;42748;50.016;19.890;2023-02-19T06:46:13;6.90;99.90
19692;DHT22;42748;50.016;19.890;2023-02-19T06:48:41;6.90;99.90
19692;DHT22;42748;50.016;19.890;2023-02-19T06:51:14;6.80;99.90
19692;DHT22;42748;50.016;19.890;2023-02-19T06:53:42;6.90;99.90
19692;DHT22;42748;50.016;19.890;2023-02-19T06:56:41;6.90;99.90
19692;DHT22;42748;50.016;19.890;2023-02-19T06:59:13;6.80;99.90
19692;DHT22;42748;50.016;19.890;2023-02-19T07:01:43;6.90;99.90
19692;DHT22;42748;50.016;19.890;2023-02-19T07:04:11;6.80;99.90
19692;DHT22;42748;50.016;19.890;2023-02-19T07:06:38;6.80;99.90
19692;DHT22;42748;50.016;19.890;2023-02-19T07:09:06;6.80;99.90
19692;DHT22;42748;50.016;19.890;2023-02-19T07:11:35;6.80;99.90
19692;DHT22;42748;50.016;19.890;2023-02-19T07:14:06;6.90;99.90
19692;DHT22;42748;50.016;19.890;2023-02-19T07:16:34;6.90;99.90
19692;DHT22;42748;50.016;19.890;2023-02-19T07:19:02;6.90;99.90
19692;DHT22;42748;50.016;19.890;2023-02-19T07:21:29;6.90;99.90
19692;DHT22;42748;50.016;19.890;2023-02-19T07:23:57;6.90;99.90
19692;DHT22;42748;50.016;19.890;2023-02-19T07:26:24;6.90;99.90
19692;DHT22;42748;50.016;19.890;2023-02-19T07:28:52;7.00;99.90
19692;DHT22;42748;50.016;19.890;2023-02-19T07:31:20;7.00;99.90
19692;DHT22;42748;50.016;19.890;2023-02-19T07:33:49;7.00;99.90
19692;DHT22;42748;50.016;19.890;2023-02-19T07:36:17;7.00;99.90
19692;DHT22;42748;50.016;19.890;2023-02-19T07:38:44;7.00;99.90
19692;DHT22;42748;50.016;19.890;2023-02-19T07:41:12;7.00;99.90
19692;DHT22;42748;50.016;19.890;2023-02-19T07:43:40;7.10;99.90
19692;DHT22;42748;50.016;19.890;2023-02-19T07:46:09;7.10;99.90
19692;DHT22;42748;50.016;19.890;2023-02-19T07:48:38;7.10;99.90
19692;DHT22;42748;50.016;19.890;2023-02-19T07:51:07;7.20;99.90
19692;DHT22;42748;50.016;19.890;2023-02-19T07:53:36;7.30;99.90
19692;DHT22;42748;50.016;19.890;2023-02-19T07:56:06;7.30;99.90
19692;DHT22;42748;50.016;19.890;2023-02-19T07:58:33;7.40;99.90
19692;DHT22;42748;50.016;19.890;2023-02-19T08:03:38;7.50;99.90
19692;DHT22;42748;50.016;19.890;2023-02-19T08:06:05;7.70;99.90
19692;DHT22;42748;50.016;19.890;2023-02-19T08:08:33;7.70;99.90
19692;DHT22;42748;50.016;19.890;2023-02-19T08:11:01;7.70;99.90
19692;DHT22;42748;50.016;19.890;2023-02-19T08:13:48;7.80;99.90
19692;DHT22;42748;50.016;19.890;2023-02-19T08:16:16;7.80;99.90
19692;DHT22;42748;50.016;19.890;2023-02-19T08:19:03;7.70;99.90
19692;DHT22;42748;50.016;19.890;2023-02-19T08:21:30;7.70;99.90
19692;DHT22;42748;50.016;19.890;2023-02-19T08:24:00;7.70;99.90
19692;DHT22;42748;50.016;19.890;2023-02-19T08:26:27;7.80;99.90
19692;DHT22;42748;50.016;19.890;2023-02-19T08:28:54;7.90;99.90
19692;DHT22;42748;50.016;19.890;2023-02-19T08:31:21;7.90;99.90
19692;DHT22;42748;50.016;19.890;2023-02-19T08:33:48;7.90;99.90
19692;DHT22;42748;50.016;19.890;2023-02-19T08:36:15;8.00;99.90
19692;DHT22;42748;50.016;19.890;2023-02-19T08:38:42;7.90;99.90
19692;DHT22;42748;50.016;19.890;2023-02-19T08:41:11;7.90;99.90
19692;DHT22;42748;50.016;19.890;2023-02-19T08:43:40;8.00;99.90
19692;DHT22;42748;50.016;19.890;2023-02-19T08:46:08;8.00;99.90
19692;DHT22;42748;50.016;19.890;2023-02-19T08:48:37;8.00;99.90
19692;DHT22;42748;50.016;19.890;2023-02-19T08:51:06;8.00;99.90
19692;DHT22;42748;50.016;19.890;2023-02-19T08:53:35;8.00;99.90
19692;DHT22;42748;50.016;19.890;2023-02-19T08:56:10;8.00;99.90
19692;DHT22;42748;50.016;19.890;2023-02-19T08:58:38;8.10;99.90
19692;DHT22;42748;50.016;19.890;2023-02-19T09:01:10;8.10;99.90
19692;DHT22;42748;50.016;19.890;2023-02-19T09:03:39;8.10;99.90
19692;DHT22;42748;50.016;19.890;2023-02-19T09:06:07;8.10;99.90
19692;DHT22;42748;50.016;19.890;2023-02-19T09:08:37;8.10;99.90
19692;DHT22;42748;50.016;19.890;2023-02-19T09:11:04;8.00;99.90
19692;DHT22;42748;50.016;19.890;2023-02-19T09:13:32;8.00;99.90
19692;DHT22;42748;50.016;19.890;2023-02-19T09:16:02;8.10;99.90
19692;DHT22;42748;50.016;19.890;2023-02-19T09:18:30;8.10;99.90
19692;DHT22;42748;50.016;19.890;2023-02-19T09:21:04;8.00;99.90
19692;DHT22;42748;50.016;19.890;2023-02-19T09:23:32;8.10;99.90
19692;DHT22;42748;50.016;19.890;2023-02-19T09:26:00;8.10;99.90
19692;DHT22;42748;50.016;19.890;2023-02-19T09:28:29;8.10;99.90
19692;DHT22;42748;50.016;19.890;2023-02-19T09:30:56;8.10;99.90
19692;DHT22;42748;50.016;19.890;2023-02-19T09:33:23;8.20;99.90
19692;DHT22;42748;50.016;19.890;2023-02-19T09:35:50;8.10;99.90
19692;DHT22;42748;50.016;19.890;2023-02-19T09:38:17;8.10;99.90
19692;DHT22;42748;50.016;19.890;2023-02-19T09:40:44;8.00;99.90
19692;DHT22;42748;50.016;19.890;2023-02-19T09:43:17;8.00;99.90
19692;DHT22;42748;50.016;19.890;2023-02-19T09:45:46;8.00;99.90
19692;DHT22;42748;50.016;19.890;2023-02-19T09:48:13;8.00;99.90
19692;DHT22;42748;50.016;19.890;2023-02-19T09:50:44;7.90;99.90
19692;DHT22;42748;50.016;19.890;2023-02-19T09:53:39;7.90;99.90
19692;DHT22;42748;50.016;19.890;2023-02-19T09:56:06;7.90;99.90
19692;DHT22;42748;50.016;19.890;2023-02-19T09:58:41;7.90;99.90
19692;DHT22;42748;50.016;19.890;2023-02-19T10:01:10;7.90;99.90
19692;DHT22;42748;50.016;19.890;2023-02-19T10:03:40;8.00;99.90
19692;DHT22;42748;50.016;19.890;2023-02-19T10:06:21;7.90;99.90
19692;DHT22;42748;50.016;19.890;2023-02-19T10:08:54;7.80;99.90
19692;DHT22;42748;50.016;19.890;2023-02-19T10:11:22;7.70;99.90
19692;DHT22;42748;50.016;19.890;2023-02-19T10:14:04;7.50;99.90
19692;DHT22;42748;50.016;19.890;2023-02-19T10:16:39;7.40;99.90
19692;DHT22;42748;50.016;19.890;2023-02-19T10:19:11;7.30;99.90
19692;DHT22;42748;50.016;19.890;2023-02-19T10:21:39;7.30;99.90
19692;DHT22;42748;50.016;19.890;2023-02-19T10:24:07;7.20;99.90
19692;DHT22;42748;50.016;19.890;2023-02-19T10:26:41;7.10;99.90
19692;DHT22;42748;50.016;19.890;2023-02-19T10:29:09;7.10;99.90
19692;DHT22;42748;50.016;19.890;2023-02-19T10:31:36;7.00;99.90
19692;DHT22;42748;50.016;19.890;2023-02-19T10:34:03;7.00;99.90
19692;DHT22;42748;50.016;19.890;2023-02-19T10:36:38;7.00;99.90
19692;DHT22;42748;50.016;19.890;2023-02-19T10:41:49;7.00;99.90
19692;DHT22;42748;50.016;19.890;2023-02-19T10:44:17;7.10;99.90
19692;DHT22;42748;50.016;19.890;2023-02-19T10:46:49;7.10;99.90
19692;DHT22;42748;50.016;19.890;2023-02-19T10:52:25;7.10;99.90
19692;DHT22;42748;50.016;19.890;2023-02-19T10:55:19;7.10;99.90
19692;DHT22;42748;50.016;19.890;2023-02-19T10:57:50;7.10;99.90
19692;DHT22;42748;50.016;19.890;2023-02-19T11:00:23;7.10;99.90
19692;DHT22;42748;50.016;19.890;2023-02-19T11:03:18;7.00;99.90
19692;DHT22;42748;50.016;19.890;2023-02-19T11:06:02;7.00;99.90
19692;DHT22;42748;50.016;19.890;2023-02-19T11:08:39;7.00;99.90
19692;DHT22;42748;50.016;19.890;2023-02-19T11:11:31;7.00;99.90
19692;DHT22;42748;50.016;19.890;2023-02-19T11:14:04;7.00;99.90
19692;DHT22;42748;50.016;19.890;2023-02-19T11:16:47;6.60;99.90
19692;DHT22;42748;50.016;19.890;2023-02-19T11:19:36;6.30;99.90
19692;DHT22;42748;50.016;19.890;2023-02-19T11:22:34;6.10;99.90
19692;DHT22;42748;50.016;19.890;2023-02-19T11:27:53;5.80;99.90
19692;DHT22;42748;50.016;19.890;2023-02-19T11:30:30;5.80;99.90
19692;DHT22;42748;50.016;19.890;2023-02-19T11:35:47;5.70;99.90
19692;DHT22;42748;50.016;19.890;2023-02-19T11:38:16;5.80;99.90
19692;DHT22;42748;50.016;19.890;2023-02-19T11:46:20;5.80;99.90
19692;DHT22;42748;50.016;19.890;2023-02-19T12:13:59;6.30;99.90
19692;DHT22;42748;50.016;19.890;2023-02-19T12:19:02;6.40;99.90
19692;DHT22;42748;50.016;19.890;2023-02-19T12:27:19;6.50;99.90
19692;DHT22;42748;50.016;19.890;2023-02-19T12:43:39;6.30;99.90
19692;DHT22;42748;50.016;19.890;2023-02-19T12:46:17;6.20;99.90
19692;DHT22;42748;50.016;19.890;2023-02-19T12:48:57;6.30;99.90
19692;DHT22;42748;50.016;19.890;2023-02-19T12:51:47;6.20;99.90
19692;DHT22;42748;50.016;19.890;2023-02-19T12:54:40;6.30;99.90
19692;DHT22;42748;50.016;19.890;2023-02-19T12:57:21;6.30;99.90
19692;DHT22;42748;50.016;19.890;2023-02-19T13:11:15;6.00;99.90
19692;DHT22;42748;50.016;19.890;2023-02-19T13:13:50;6.00;99.90
19692;DHT22;42748;50.016;19.890;2023-02-19T13:16:19;6.10;99.90
19692;DHT22;42748;50.016;19.890;2023-02-19T13:18:49;6.00;99.90
19692;DHT22;42748;50.016;19.890;2023-02-19T13:21:19;5.90;99.90
19692;DHT22;42748;50.016;19.890;2023-02-19T13:24:13;5.90;99.90
19692;DHT22;42748;50.016;19.890;2023-02-19T13:26:51;5.90;99.90
19692;DHT22;42748;50.016;19.890;2023-02-19T13:37:51;5.90;99.90
19692;DHT22;42748;50.016;19.890;2023-02-19T13:42:58;6.00;99.90
19692;DHT22;42748;50.016;19.890;2023-02-19T13:45:41;6.00;99.90
19692;DHT22;42748;50.016;19.890;2023-02-19T14:14:38;5.50;99.90
19692;DHT22;42748;50.016;19.890;2023-02-19T14:30:49;5.30;99.90
19692;DHT22;42748;50.016;19.890;2023-02-19T14:37:34;5.20;99.90
19692;DHT22;42748;50.016;19.890;2023-02-19T14:40:02;5.10;99.90
19692;DHT22;42748;50.016;19.890;2023-02-19T14:42:29;5.10;99.90
19692;DHT22;42748;50.016;19.890;2023-02-19T14:45:03;5.10;99.90
19692;DHT22;42748;50.016;19.890;2023-02-19T14:47:31;5.00;99.90
19692;DHT22;42748;50.016;19.890;2023-02-19T14:50:06;5.00;99.90
19692;DHT22;42748;50.016;19.890;2023-02-19T14:52:40;5.00;99.90
19692;DHT22;42748;50.016;19.890;2023-02-19T14:55:29;4.90;99.90
19692;DHT22;42748;50.016;19.890;2023-02-19T14:58:06;4.80;99.90
19692;DHT22;42748;50.016;19.890;2023-02-19T15:00:38;4.80;99.90
19692;DHT22;42748;50.016;19.890;2023-02-19T15:03:31;4.80;99.90
19692;DHT22;42748;50.016;19.890;2023-02-19T15:07:31;4.80;99.90
19692;DHT22;42748;50.016;19.890;2023-02-19T15:10:01;4.70;99.90
19692;DHT22;42748;50.016;19.890;2023-02-19T15:12:38;4.60;99.90
19692;DHT22;42748;50.016;19.890;2023-02-19T15:15:08;4.60;99.90
19692;DHT22;42748;50.016;19.890;2023-02-19T15:17:42;4.60;99.90
19692;DHT22;42748;50.016;19.890;2023-02-19T15:25:04;4.50;99.90
19692;DHT22;42748;50.016;19.890;2023-02-19T15:27:32;4.40;99.90
19692;DHT22;42748;50.016;19.890;2023-02-19T15:30:00;4.40;99.90
19692;DHT22;42748;50.016;19.890;2023-02-19T15:32:27;4.40;99.90
19692;DHT22;42748;50.016;19.890;2023-02-19T15:39:25;4.40;99.90
19692;DHT22;42748;50.016;19.890;2023-02-19T15:41:59;4.40;99.90
19692;DHT22;42748;50.016;19.890;2023-02-19T15:44:51;4.40;99.90
19692;DHT22;42748;50.016;19.890;2023-02-19T15:54:27;4.40;99.90
19692;DHT22;42748;50.016;19.890;2023-02-19T15:57:01;4.30;99.90
19692;DHT22;42748;50.016;19.890;2023-02-19T15:59:38;4.30;99.90
19692;DHT22;42748;50.016;19.890;2023-02-19T16:02:11;4.20;99.90
19692;DHT22;42748;50.016;19.890;2023-02-19T16:09:05;4.30;99.90
19692;DHT22;42748;50.016;19.890;2023-02-19T16:11:59;4.30;99.90
19692;DHT22;42748;50.016;19.890;2023-02-19T16:14:33;4.30;99.90
19692;DHT22;42748;50.016;19.890;2023-02-19T16:26:48;4.30;99.90
19692;DHT22;42748;50.016;19.890;2023-02-19T16:29:48;4.20;99.90
19692;DHT22;42748;50.016;19.890;2023-02-19T16:32:16;4.20;99.90
19692;DHT22;42748;50.016;19.890;2023-02-19T16:39:14;4.20;99.90
19692;DHT22;42748;50.016;19.890;2023-02-19T16:47:01;4.10;99.90
19692;DHT22;42748;50.016;19.890;2023-02-19T16:49:30;4.10;99.90
19692;DHT22;42748;50.016;19.890;2023-02-19T16:51:58;4.10;99.90
19692;DHT22;42748;50.016;19.890;2023-02-19T16:54:29;4.10;99.90
19692;DHT22;42748;50.016;19.890;2023-02-19T16:56:57;4.10;99.90
19692;DHT22;42748;50.016;19.890;2023-02-19T16:59:24;4.10;99.90
19692;DHT22;42748;50.016;19.890;2023-02-19T17:01:51;4.10;99.90
19692;DHT22;42748;50.016;19.890;2023-02-19T17:04:18;4.10;99.90
19692;DHT22;42748;50.016;19.890;2023-02-19T17:11:15;4.10;99.90
19692;DHT22;42748;50.016;19.890;2023-02-19T17:13:44;4.10;99.90
19692;DHT22;42748;50.016;19.890;2023-02-19T17:16:20;4.00;99.90
19692;DHT22;42748;50.016;19.890;2023-02-19T17:18:47;4.00;99.90
19692;DHT22;42748;50.016;19.890;2023-02-19T17:21:23;3.90;99.90
19692;DHT22;42748;50.016;19.890;2023-02-19T17:23:52;3.90;99.90
19692;DHT22;42748;50.016;19.890;2023-02-19T17:26:27;3.90;99.90
19692;DHT22;42748;50.016;19.890;2023-02-19T17:28:56;3.90;99.90
19692;DHT22;42748;50.016;19.890;2023-02-19T17:31:23;4.00;99.90
19692;DHT22;42748;50.016;19.890;2023-02-19T17:33:50;3.90;99.90
19692;DHT22;42748;50.016;19.890;2023-02-19T17:36:23;3.90;99.90
19692;DHT22;42748;50.016;19.890;2023-02-19T17:38:52;4.00;99.90
19692;DHT22;42748;50.016;19.890;2023-02-19T17:41:20;4.00;99.90
19692;DHT22;42748;50.016;19.890;2023-02-19T17:43:47;4.00;99.90
19692;DHT22;42748;50.016;19.890;2023-02-19T17:46:21;4.00;99.90
19692;DHT22;42748;50.016;19.890;2023-02-19T17:48:49;4.00;99.90
19692;DHT22;42748;50.016;19.890;2023-02-19T17:51:17;4.00;99.90
19692;DHT22;42748;50.016;19.890;2023-02-19T17:53:44;4.00;99.90
19692;DHT22;42748;50.016;19.890;2023-02-19T17:56:20;3.90;99.90
19692;DHT22;42748;50.016;19.890;2023-02-19T17:58:48;3.90;99.90
19692;DHT22;42748;50.016;19.890;2023-02-19T18:01:15;3.90;99.90
19692;DHT22;42748;50.016;19.890;2023-02-19T18:03:43;3.90;99.90
19692;DHT22;42748;50.016;19.890;2023-02-19T18:06:10;3.90;99.90
19692;DHT22;42748;50.016;19.890;2023-02-19T18:08:37;3.90;99.90
19692;DHT22;42748;50.016;19.890;2023-02-19T18:11:06;3.90;99.90
19692;DHT22;42748;50.016;19.890;2023-02-19T18:13:33;3.90;99.90
19692;DHT22;42748;50.016;19.890;2023-02-19T18:16:00;3.80;99.90
19692;DHT22;42748;50.016;19.890;2023-02-19T18:18:27;3.80;99.90
19692;DHT22;42748;50.016;19.890;2023-02-19T18:20:56;3.80;99.90
19692;DHT22;42748;50.016;19.890;2023-02-19T18:23:26;3.80;99.90
19692;DHT22;42748;50.016;19.890;2023-02-19T18:25:53;3.70;99.90
19692;DHT22;42748;50.016;19.890;2023-02-19T18:28:20;3.70;99.90
19692;DHT22;42748;50.016;19.890;2023-02-19T18:30:47;3.80;99.90
19692;DHT22;42748;50.016;19.890;2023-02-19T18:33:15;3.70;99.90
19692;DHT22;42748;50.016;19.890;2023-02-19T18:35:42;3.70;99.90
19692;DHT22;42748;50.016;19.890;2023-02-19T18:38:09;3.70;99.90
19692;DHT22;42748;50.016;19.890;2023-02-19T18:40:36;3.60;99.90
19692;DHT22;42748;50.016;19.890;2023-02-19T18:43:04;3.50;99.90
19692;DHT22;42748;50.016;19.890;2023-02-19T18:45:31;3.50;99.90
19692;DHT22;42748;50.016;19.890;2023-02-19T18:48:01;3.50;99.90
19692;DHT22;42748;50.016;19.890;2023-02-19T18:50:28;3.50;99.90
19692;DHT22;42748;50.016;19.890;2023-02-19T18:52:55;3.50;99.90
19692;DHT22;42748;50.016;19.890;2023-02-19T18:55:22;3.50;99.90
19692;DHT22;42748;50.016;19.890;2023-02-19T18:57:49;3.50;99.90
19692;DHT22;42748;50.016;19.890;2023-02-19T19:00:19;3.50;99.90
19692;DHT22;42748;50.016;19.890;2023-02-19T19:02:47;3.50;99.90
19692;DHT22;42748;50.016;19.890;2023-02-19T19:05:18;3.50;99.90
19692;DHT22;42748;50.016;19.890;2023-02-19T19:12:12;3.50;99.90
19692;DHT22;42748;50.016;19.890;2023-02-19T19:14:39;3.40;99.90
19692;DHT22;42748;50.016;19.890;2023-02-19T19:17:07;3.40;99.90
19692;DHT22;42748;50.016;19.890;2023-02-19T19:19:34;3.40;99.90
19692;DHT22;42748;50.016;19.890;2023-02-19T19:26:43;3.30;99.90
19692;DHT22;42748;50.016;19.890;2023-02-19T19:29:12;3.20;99.90
19692;DHT22;42748;50.016;19.890;2023-02-19T19:31:42;3.20;99.90
19692;DHT22;42748;50.016;19.890;2023-02-19T19:34:10;3.20;99.90
19692;DHT22;42748;50.016;19.890;2023-02-19T19:36:38;3.10;99.90
19692;DHT22;42748;50.016;19.890;2023-02-19T19:39:05;3.10;99.90